Time;durP1;ratioP1;P1;durP2;ratioP2;P2;SDS_P1;SDS_P2;PMS_P1;PMS_P2;Temp;Humidity;BMP_temperature;BMP_pressure;BME280_temperature;BME280_humidity;BME280_pressure;Samples;Min_cycle;Max_cycle;Signal;HPM_P1;HPM_P2
2022/01/15 00:01:16;;;;;;;26.33;12.05;;;6.50;99.90;;;;;;4862639;29;20153;-92
2022/01/15 00:03:42;;;;;;;25.58;11.77;;;6.50;99.90;;;;;;4861402;29;20052;-92
2022/01/15 00:06:08;;;;;;;29.75;12.15;;;6.50;99.90;;;;;;4863295;29;20695;-94
2022/01/15 00:08:33;;;;;;;25.80;11.68;;;6.50;99.90;;;;;;4861996;29;20056;-92
2022/01/15 00:10:59;;;;;;;27.50;11.80;;;6.50;99.90;;;;;;4863192;29;20045;-91
2022/01/15 00:13:28;;;;;;;29.17;11.20;;;6.50;99.90;;;;;;4863105;29;20680;-93
2022/01/15 00:16:10;;;;;;;27.83;10.93;;;6.50;99.90;;;;;;4862269;29;20410;-92
2022/01/15 00:18:59;;;;;;;25.75;11.48;;;6.50;99.90;;;;;;4861484;29;20071;-92
2022/01/15 00:21:26;;;;;;;26.40;11.63;;;6.50;99.90;;;;;;4862469;29;20060;-92
2022/01/15 00:23:51;;;;;;;26.88;11.18;;;6.40;99.90;;;;;;4862022;29;20100;-92
2022/01/15 00:26:17;;;;;;;24.75;10.85;;;6.40;99.90;;;;;;4862748;29;20044;-93
2022/01/15 00:28:42;;;;;;;24.02;10.55;;;6.40;99.90;;;;;;4877342;29;20495;-92
2022/01/15 00:31:08;;;;;;;29.38;11.63;;;6.40;99.90;;;;;;4862502;29;20155;-94
2022/01/15 00:33:34;;;;;;;23.10;10.73;;;6.40;99.90;;;;;;4861160;29;20136;-92
2022/01/15 00:35:59;;;;;;;31.00;11.20;;;6.40;99.90;;;;;;4862624;29;20402;-92
2022/01/15 00:38:25;;;;;;;22.88;10.15;;;6.50;99.90;;;;;;4861470;29;20048;-93
2022/01/15 00:40:51;;;;;;;22.90;10.43;;;6.50;99.90;;;;;;4878288;29;20104;-92
2022/01/15 00:43:18;;;;;;;20.75;10.30;;;6.40;99.90;;;;;;4861297;29;20443;-93
2022/01/15 00:45:44;;;;;;;26.45;11.38;;;6.50;99.90;;;;;;4862583;29;20505;-92
2022/01/15 00:48:09;;;;;;;23.88;11.50;;;6.50;99.90;;;;;;4860762;29;20048;-92
2022/01/15 00:50:35;;;;;;;28.45;10.52;;;6.40;99.90;;;;;;4862975;29;20044;-93
2022/01/15 00:53:00;;;;;;;22.55;9.23;;;6.50;99.90;;;;;;4860786;29;20052;-93
2022/01/15 00:55:26;;;;;;;29.08;9.52;;;6.40;99.90;;;;;;4878279;29;20096;-92
2022/01/15 00:57:52;;;;;;;28.77;10.20;;;6.40;99.90;;;;;;4876199;29;20071;-92
2022/01/15 01:00:20;;;;;;;39.08;11.10;;;6.40;99.90;;;;;;4862315;29;20043;-93
2022/01/15 01:02:46;;;;;;;23.42;10.57;;;6.30;99.90;;;;;;4860558;29;20054;-92
2022/01/15 01:05:12;;;;;;;21.73;10.23;;;6.30;99.90;;;;;;4862324;29;20049;-92
2022/01/15 01:07:39;;;;;;;26.38;10.90;;;6.30;99.90;;;;;;4861512;29;20121;-93
2022/01/15 01:10:37;;;;;;;25.33;10.50;;;6.30;99.90;;;;;;4843984;29;20057;-92
2022/01/15 01:24:00;;;;;;;20.30;9.82;;;6.40;99.90;;;;;;4838351;29;20084;-93
2022/01/15 01:26:31;;;;;;;34.38;11.95;;;6.40;99.90;;;;;;4839408;29;20058;-92
2022/01/15 01:29:55;;;;;;;24.40;10.77;;;6.40;99.90;;;;;;4822936;29;20045;-93
2022/01/15 01:34:43;;;;;;;30.38;10.68;;;6.40;99.90;;;;;;4809940;29;20053;-92
2022/01/15 01:37:20;;;;;;;35.67;12.32;;;6.40;99.90;;;;;;4823195;29;20144;-92
2022/01/15 01:45:08;;;;;;;26.83;11.60;;;6.30;99.90;;;;;;4820629;29;20046;-93
2022/01/15 01:47:43;;;;;;;29.23;11.70;;;6.30;99.90;;;;;;4805294;29;20109;-92
2022/01/15 01:50:15;;;;;;;30.50;11.27;;;6.30;99.90;;;;;;4819574;29;20136;-93
2022/01/15 01:52:42;;;;;;;29.58;11.20;;;6.30;99.90;;;;;;4834690;29;20058;-92
2022/01/15 01:55:08;;;;;;;30.75;12.02;;;6.20;99.90;;;;;;4835879;29;20050;-95
2022/01/15 01:57:35;;;;;;;33.33;12.13;;;6.30;99.90;;;;;;4844782;29;20061;-92
2022/01/15 02:00:03;;;;;;;24.42;10.52;;;6.30;99.90;;;;;;4842254;29;20045;-93
2022/01/15 02:02:29;;;;;;;27.98;10.90;;;6.30;99.90;;;;;;4857886;29;20049;-93
2022/01/15 02:04:58;;;;;;;26.35;11.60;;;6.30;99.90;;;;;;4856732;29;20052;-93
2022/01/15 02:07:27;;;;;;;26.65;11.25;;;6.30;99.90;;;;;;4860516;29;20063;-92
2022/01/15 02:09:55;;;;;;;28.73;10.93;;;6.30;99.90;;;;;;4875361;29;20105;-93
2022/01/15 02:12:21;;;;;;;25.45;10.57;;;6.30;99.90;;;;;;4860422;29;20570;-93
2022/01/15 02:14:46;;;;;;;21.73;10.60;;;6.30;99.90;;;;;;4876160;29;20132;-92
2022/01/15 02:17:17;;;;;;;30.33;10.63;;;6.30;99.90;;;;;;4860647;29;20059;-92
2022/01/15 02:20:07;;;;;;;27.55;10.35;;;6.30;99.90;;;;;;4859944;29;20048;-93
2022/01/15 02:25:15;;;;;;;24.83;11.40;;;6.30;99.90;;;;;;4895151;29;20060;-93
2022/01/15 02:27:40;;;;;;;21.05;9.38;;;6.30;99.90;;;;;;4862732;29;20037;-93
2022/01/15 02:30:06;;;;;;;21.77;9.85;;;6.30;99.90;;;;;;4859447;29;20041;-93
2022/01/15 02:32:34;;;;;;;33.58;10.90;;;6.30;99.90;;;;;;4859689;29;20045;-93
2022/01/15 02:35:01;;;;;;;28.95;10.35;;;6.30;99.90;;;;;;4860201;29;20064;-93
2022/01/15 02:37:28;;;;;;;30.75;9.52;;;6.20;99.90;;;;;;4876918;29;20461;-93
2022/01/15 02:39:55;;;;;;;34.75;11.00;;;6.20;99.90;;;;;;4862502;29;20045;-94
2022/01/15 02:42:23;;;;;;;31.45;10.60;;;6.20;99.90;;;;;;4862842;29;20092;-94
2022/01/15 02:44:48;;;;;;;24.20;9.77;;;6.10;99.90;;;;;;4877540;29;20056;-93
2022/01/15 02:49:58;;;;;;;29.80;10.45;;;6.10;99.90;;;;;;4878615;29;20412;-93
2022/01/15 02:52:24;;;;;;;32.88;10.07;;;6.10;99.90;;;;;;4862803;29;20051;-93
2022/01/15 02:54:49;;;;;;;42.67;10.30;;;6.10;99.90;;;;;;4863491;29;20123;-93
2022/01/15 02:57:15;;;;;;;41.90;10.73;;;6.10;99.90;;;;;;4867041;29;20044;-92
2022/01/15 02:59:41;;;;;;;30.23;9.88;;;6.00;99.90;;;;;;4877550;29;20055;-92
2022/01/15 03:02:06;;;;;;;31.63;9.98;;;6.00;99.90;;;;;;4874734;29;20051;-94
2022/01/15 03:04:32;;;;;;;31.15;10.82;;;6.00;99.90;;;;;;4862800;29;20052;-92
2022/01/15 03:06:58;;;;;;;31.15;10.57;;;6.00;99.90;;;;;;4826587;29;1077813;-92
2022/01/15 03:09:23;;;;;;;31.95;10.18;;;6.00;99.90;;;;;;4879149;29;20083;-93
2022/01/15 03:11:49;;;;;;;29.38;9.85;;;6.00;99.90;;;;;;4864005;29;20052;-93
2022/01/15 03:14:18;;;;;;;24.27;9.15;;;6.00;99.90;;;;;;4862805;29;20562;-93
2022/01/15 03:16:44;;;;;;;23.77;9.88;;;6.00;99.90;;;;;;4864040;29;20574;-92
2022/01/15 03:19:09;;;;;;;28.40;10.13;;;6.00;99.90;;;;;;4862857;29;20072;-91
2022/01/15 03:21:35;;;;;;;22.88;9.63;;;6.00;99.90;;;;;;4863929;29;20049;-92
2022/01/15 03:24:01;;;;;;;22.67;9.35;;;6.10;99.90;;;;;;4852617;29;20579;-92
2022/01/15 03:26:26;;;;;;;24.50;9.85;;;6.10;99.90;;;;;;4860908;29;20049;-92
2022/01/15 03:28:52;;;;;;;26.13;9.20;;;6.10;99.90;;;;;;4874090;29;20124;-93
2022/01/15 03:31:17;;;;;;;25.17;9.30;;;6.10;99.90;;;;;;4876578;29;20056;-92
2022/01/15 03:33:43;;;;;;;23.30;9.77;;;6.10;99.90;;;;;;4874228;29;20049;-92
2022/01/15 03:36:09;;;;;;;24.13;9.40;;;6.10;99.90;;;;;;4860216;29;20076;-92
2022/01/15 03:38:35;;;;;;;27.38;9.15;;;6.10;99.90;;;;;;4893037;29;20111;-92
2022/01/15 03:41:00;;;;;;;29.65;9.40;;;6.10;99.90;;;;;;4863438;29;20483;-93
2022/01/15 03:43:26;;;;;;;22.38;8.77;;;6.10;99.90;;;;;;4862695;29;20056;-92
2022/01/15 03:45:51;;;;;;;22.58;9.15;;;6.10;99.90;;;;;;4863598;29;20045;-92
2022/01/15 03:48:17;;;;;;;19.90;8.48;;;6.10;99.90;;;;;;4872273;29;20192;-92
2022/01/15 03:50:43;;;;;;;21.70;8.38;;;6.10;99.90;;;;;;4865178;29;20090;-92
2022/01/15 03:53:09;;;;;;;23.13;8.52;;;6.10;99.90;;;;;;4877990;29;20083;-93
2022/01/15 03:55:34;;;;;;;21.30;8.13;;;6.10;99.90;;;;;;4863100;29;20068;-92
2022/01/15 03:58:00;;;;;;;20.20;8.30;;;6.10;99.90;;;;;;4858843;29;20056;-93
2022/01/15 04:00:27;;;;;;;22.35;8.45;;;6.10;99.90;;;;;;4844111;29;20056;-93
2022/01/15 04:02:54;;;;;;;23.65;9.32;;;6.10;99.90;;;;;;4843924;29;20055;-92
2022/01/15 04:05:20;;;;;;;22.30;8.00;;;6.10;99.90;;;;;;4844796;29;20128;-93
2022/01/15 04:07:46;;;;;;;25.38;8.52;;;6.10;99.90;;;;;;4852428;29;20052;-91
2022/01/15 04:10:13;;;;;;;20.80;8.57;;;6.10;99.90;;;;;;4862416;29;20388;-91
2022/01/15 04:12:39;;;;;;;20.75;8.57;;;6.10;99.90;;;;;;4876173;29;20045;-92
2022/01/15 04:15:07;;;;;;;18.60;7.97;;;6.10;99.90;;;;;;4861927;29;20147;-92
2022/01/15 04:17:33;;;;;;;29.38;7.97;;;6.10;99.90;;;;;;4855115;29;20041;-92
2022/01/15 04:19:59;;;;;;;25.55;8.25;;;6.10;99.90;;;;;;4843249;29;20047;-91
2022/01/15 04:22:25;;;;;;;24.77;7.93;;;6.10;99.90;;;;;;4858003;29;20048;-91
2022/01/15 04:24:51;;;;;;;23.33;8.45;;;6.00;99.90;;;;;;4877942;29;20169;-93
2022/01/15 04:27:21;;;;;;;28.40;8.65;;;6.00;99.90;;;;;;4862386;29;20522;-92
2022/01/15 04:29:46;;;;;;;29.35;8.25;;;5.90;99.90;;;;;;4877084;29;20495;-92
2022/01/15 04:32:12;;;;;;;29.30;9.20;;;5.90;99.90;;;;;;4877912;29;20040;-92
2022/01/15 04:34:37;;;;;;;28.20;8.18;;;5.90;99.90;;;;;;4862300;29;20059;-92
2022/01/15 04:37:10;;;;;;;29.17;9.20;;;5.90;99.90;;;;;;4862321;29;20048;-92
2022/01/15 04:39:35;;;;;;;26.50;9.82;;;5.90;99.90;;;;;;4861640;29;20407;-90
2022/01/15 04:42:01;;;;;;;29.50;10.23;;;5.90;99.90;;;;;;4869406;29;20052;-92
2022/01/15 04:44:27;;;;;;;38.03;10.20;;;5.90;99.90;;;;;;4844863;29;20049;-92
2022/01/15 04:46:52;;;;;;;28.02;8.95;;;5.90;99.90;;;;;;4861493;29;20188;-92
2022/01/15 04:49:19;;;;;;;35.63;10.15;;;5.90;99.90;;;;;;4861271;29;20131;-92
2022/01/15 04:51:44;;;;;;;34.75;10.30;;;5.90;99.90;;;;;;4862324;29;20045;-92
2022/01/15 04:54:10;;;;;;;28.35;9.35;;;5.80;99.90;;;;;;4876512;29;20056;-93
2022/01/15 04:56:35;;;;;;;25.90;9.40;;;5.80;99.90;;;;;;4845400;29;20056;-93
2022/01/15 04:59:01;;;;;;;27.13;9.80;;;5.80;99.90;;;;;;4841888;29;20063;-91
2022/01/15 05:01:28;;;;;;;24.00;9.68;;;5.90;99.90;;;;;;4859630;29;20407;-91
2022/01/15 05:03:54;;;;;;;25.23;9.10;;;5.90;99.90;;;;;;4841706;29;20049;-93
2022/01/15 05:06:19;;;;;;;23.02;8.88;;;5.90;99.90;;;;;;4844159;29;20049;-91
2022/01/15 05:08:46;;;;;;;25.92;8.90;;;5.90;99.90;;;;;;4860852;29;20087;-93
2022/01/15 05:11:26;;;;;;;25.88;9.32;;;5.90;99.90;;;;;;4862558;29;20048;-91
2022/01/15 05:13:52;;;;;;;20.13;8.40;;;5.90;99.90;;;;;;4858437;29;20899;-93
2022/01/15 05:16:17;;;;;;;23.77;8.60;;;5.90;99.90;;;;;;4859359;29;20057;-92
2022/01/15 05:18:43;;;;;;;25.63;9.02;;;5.90;99.90;;;;;;4872416;29;20058;-92
2022/01/15 05:21:09;;;;;;;28.90;9.40;;;5.90;99.90;;;;;;4849214;29;20049;-91
2022/01/15 05:23:34;;;;;;;24.05;8.55;;;5.90;99.90;;;;;;4857842;29;20135;-93
2022/01/15 05:26:00;;;;;;;20.35;7.68;;;5.90;99.90;;;;;;4877171;29;20052;-92
2022/01/15 05:28:25;;;;;;;21.00;8.10;;;5.90;99.90;;;;;;4857829;29;20143;-92
2022/01/15 05:30:51;;;;;;;24.55;8.55;;;5.90;99.90;;;;;;4858427;29;20048;-92
2022/01/15 05:33:16;;;;;;;23.90;8.13;;;5.90;99.90;;;;;;4870697;29;20567;-91
2022/01/15 05:35:42;;;;;;;25.60;7.55;;;5.80;99.90;;;;;;4876776;29;20037;-93
2022/01/15 05:38:08;;;;;;;25.45;8.00;;;5.80;99.90;;;;;;4889106;29;20527;-91
2022/01/15 05:40:33;;;;;;;29.75;8.00;;;5.80;99.90;;;;;;4860965;29;20045;-92
2022/01/15 05:42:59;;;;;;;25.13;9.15;;;5.70;99.90;;;;;;4842517;29;20166;-91
2022/01/15 05:45:24;;;;;;;27.70;8.48;;;5.80;99.90;;;;;;4845270;29;20510;-92
2022/01/15 05:47:51;;;;;;;25.92;8.45;;;5.80;99.90;;;;;;4892235;29;20055;-92
2022/01/15 05:50:16;;;;;;;23.02;8.82;;;5.80;99.90;;;;;;4861306;29;20505;-92
2022/01/15 05:52:42;;;;;;;25.88;9.20;;;5.80;99.90;;;;;;4861293;29;20045;-92
2022/01/15 05:55:08;;;;;;;22.13;9.20;;;5.90;99.90;;;;;;4860819;29;20041;-91
2022/01/15 05:57:33;;;;;;;21.73;9.00;;;5.90;99.90;;;;;;4862251;29;20101;-92
2022/01/15 05:59:59;;;;;;;24.52;9.35;;;5.80;99.90;;;;;;4865107;29;20152;-91
2022/01/15 06:02:25;;;;;;;19.55;7.63;;;5.80;99.90;;;;;;4865506;29;20088;-91
2022/01/15 06:04:50;;;;;;;23.20;8.68;;;5.80;99.90;;;;;;4864451;29;20084;-91
2022/01/15 06:07:17;;;;;;;23.65;8.45;;;5.70;99.90;;;;;;4854279;29;20060;-91
2022/01/15 06:09:42;;;;;;;22.70;7.70;;;5.70;99.90;;;;;;4862148;29;20109;-91
2022/01/15 06:12:09;;;;;;;23.00;8.32;;;5.70;99.90;;;;;;4863355;29;20036;-92
2022/01/15 06:14:35;;;;;;;25.00;8.20;;;5.60;99.90;;;;;;4866288;29;20044;-92
2022/01/15 06:17:03;;;;;;;23.55;7.75;;;5.60;99.90;;;;;;4864360;29;20051;-92
2022/01/15 06:19:28;;;;;;;25.52;8.77;;;5.60;99.90;;;;;;4862816;29;20120;-91
2022/01/15 06:21:54;;;;;;;24.90;8.50;;;5.60;99.90;;;;;;4863909;29;20586;-91
2022/01/15 06:24:19;;;;;;;24.33;8.18;;;5.60;99.90;;;;;;4863328;29;20091;-92
2022/01/15 06:26:45;;;;;;;25.08;8.25;;;5.60;99.90;;;;;;4864346;29;20713;-92
2022/01/15 06:29:11;;;;;;;25.17;8.73;;;5.60;99.90;;;;;;4862804;29;20491;-92
2022/01/15 06:31:36;;;;;;;26.08;7.93;;;5.50;99.90;;;;;;4864764;29;20053;-93
2022/01/15 06:34:02;;;;;;;27.83;8.43;;;5.50;99.90;;;;;;4862599;29;20048;-92
2022/01/15 06:36:28;;;;;;;22.35;7.75;;;5.50;99.90;;;;;;4863151;29;20040;-93
2022/01/15 06:38:54;;;;;;;20.30;8.00;;;5.40;99.90;;;;;;4855525;29;20083;-93
2022/01/15 06:41:19;;;;;;;21.42;8.30;;;5.40;99.90;;;;;;4860193;29;20067;-92
2022/01/15 06:43:45;;;;;;;19.45;7.35;;;5.40;99.90;;;;;;4862482;29;20052;-94
2022/01/15 06:46:11;;;;;;;20.98;7.32;;;5.40;99.90;;;;;;4879484;29;20188;-92
2022/01/15 06:48:37;;;;;;;19.10;7.57;;;5.40;99.90;;;;;;4878300;29;20040;-92
2022/01/15 06:51:02;;;;;;;18.75;7.32;;;5.30;99.90;;;;;;4859047;29;20077;-91
2022/01/15 06:53:29;;;;;;;19.38;7.35;;;5.30;99.90;;;;;;4856078;29;20053;-92
2022/01/15 06:55:55;;;;;;;20.05;7.72;;;5.40;99.90;;;;;;4883021;29;20403;-92
2022/01/15 06:58:22;;;;;;;21.92;7.88;;;5.40;99.90;;;;;;4863727;29;20072;-92
2022/01/15 07:00:48;;;;;;;19.02;7.18;;;5.30;99.90;;;;;;4863940;29;20051;-93
2022/01/15 07:03:14;;;;;;;20.17;7.78;;;5.30;99.90;;;;;;4861941;29;20048;-92
2022/01/15 07:05:40;;;;;;;21.20;7.85;;;5.30;99.90;;;;;;4855997;29;20051;-91
2022/01/15 07:08:05;;;;;;;18.27;7.95;;;5.30;99.90;;;;;;4855354;29;20068;-91
2022/01/15 07:10:31;;;;;;;20.70;8.55;;;5.30;99.90;;;;;;4855496;29;20049;-91
2022/01/15 07:12:57;;;;;;;20.02;7.88;;;5.30;99.90;;;;;;4878623;29;20049;-93
2022/01/15 07:15:22;;;;;;;23.23;7.85;;;5.20;99.90;;;;;;4876124;29;20410;-92
2022/01/15 07:17:49;;;;;;;22.83;8.52;;;5.20;99.90;;;;;;4879138;29;20041;-91
2022/01/15 07:20:17;;;;;;;17.38;7.28;;;5.20;99.90;;;;;;4862807;29;20049;-92
2022/01/15 07:22:44;;;;;;;21.15;7.75;;;5.20;99.90;;;;;;4851350;29;20551;-92
2022/01/15 07:25:10;;;;;;;19.75;7.90;;;5.20;99.90;;;;;;4890823;29;20036;-91
2022/01/15 07:27:37;;;;;;;17.25;7.55;;;5.20;99.90;;;;;;4860530;29;20049;-93
2022/01/15 07:30:06;;;;;;;19.55;7.70;;;5.20;99.90;;;;;;4859740;29;20048;-93
2022/01/15 07:32:31;;;;;;;21.77;7.65;;;5.20;99.90;;;;;;4867887;29;20491;-92
2022/01/15 07:34:57;;;;;;;21.13;8.25;;;5.20;99.90;;;;;;4887351;29;20041;-92
2022/01/15 07:37:23;;;;;;;23.98;8.95;;;5.10;99.90;;;;;;4892351;29;20044;-92
2022/01/15 07:39:53;;;;;;;25.20;9.65;;;5.10;99.90;;;;;;4876204;29;20095;-93
2022/01/15 07:42:19;;;;;;;23.33;9.43;;;5.10;99.90;;;;;;4855175;29;20662;-93
2022/01/15 07:44:44;;;;;;;23.48;8.98;;;5.10;99.90;;;;;;4868048;29;20056;-92
2022/01/15 07:47:12;;;;;;;29.58;9.90;;;5.10;99.90;;;;;;4875781;29;20041;-92
2022/01/15 07:49:37;;;;;;;31.23;10.75;;;5.10;99.90;;;;;;4863015;29;20100;-93
2022/01/15 07:52:03;;;;;;;29.10;10.93;;;5.10;99.90;;;;;;4876389;29;20041;-92
2022/01/15 07:54:29;;;;;;;32.42;10.77;;;5.10;99.90;;;;;;4869907;29;20093;-91
2022/01/15 07:56:55;;;;;;;31.95;10.82;;;5.10;99.90;;;;;;4879926;29;20586;-92
2022/01/15 07:59:21;;;;;;;30.25;10.93;;;5.10;99.90;;;;;;4872432;29;20051;-92
2022/01/15 08:01:47;;;;;;;27.98;10.88;;;5.10;99.90;;;;;;4862096;29;20044;-91
2022/01/15 08:04:13;;;;;;;27.52;10.55;;;5.10;99.90;;;;;;4859557;29;20048;-92
2022/01/15 08:06:40;;;;;;;28.83;10.38;;;5.10;99.90;;;;;;4873274;29;20048;-92
2022/01/15 08:09:06;;;;;;;27.23;9.98;;;5.10;99.90;;;;;;4852740;29;20049;-91
2022/01/15 08:11:32;;;;;;;32.47;10.55;;;5.10;99.90;;;;;;4850914;29;20556;-91
2022/01/15 08:13:57;;;;;;;35.08;12.25;;;5.10;99.90;;;;;;4843658;29;20141;-91
2022/01/15 08:16:23;;;;;;;32.53;11.05;;;5.00;99.90;;;;;;4859815;29;20040;-92
2022/01/15 08:18:49;;;;;;;32.95;12.48;;;5.00;99.90;;;;;;4857999;29;20056;-91
2022/01/15 08:21:15;;;;;;;30.80;10.82;;;5.00;99.90;;;;;;4890290;29;20510;-90
2022/01/15 08:23:40;;;;;;;25.42;10.05;;;5.00;99.90;;;;;;4856883;29;20068;-91
2022/01/15 08:26:06;;;;;;;37.50;11.80;;;5.00;99.90;;;;;;4862466;29;20534;-92
2022/01/15 08:28:32;;;;;;;35.15;11.35;;;5.00;99.90;;;;;;4859829;29;20048;-92
2022/01/15 08:30:58;;;;;;;34.90;11.63;;;5.10;99.90;;;;;;4860749;29;20044;-92
2022/01/15 08:33:23;;;;;;;29.95;11.15;;;5.00;99.90;;;;;;4858697;29;20722;-94
2022/01/15 08:35:49;;;;;;;37.67;11.38;;;5.00;99.90;;;;;;4857403;29;20064;-93
2022/01/15 08:38:14;;;;;;;35.13;11.95;;;5.00;99.90;;;;;;4876653;29;20523;-92
2022/01/15 08:40:40;;;;;;;38.55;12.68;;;5.00;99.90;;;;;;4857969;29;20045;-91
2022/01/15 08:43:06;;;;;;;42.55;14.65;;;5.00;99.90;;;;;;4856115;29;20150;-91
2022/01/15 08:45:32;;;;;;;44.78;14.73;;;5.00;99.90;;;;;;4857080;29;20044;-92
2022/01/15 08:47:57;;;;;;;39.97;12.98;;;5.00;99.90;;;;;;4854493;29;20415;-92
2022/01/15 08:50:23;;;;;;;44.30;13.93;;;5.00;99.90;;;;;;4857548;29;20048;-91
2022/01/15 08:52:49;;;;;;;41.20;14.70;;;5.00;99.90;;;;;;4860554;29;20504;-91
2022/01/15 08:55:16;;;;;;;45.00;15.05;;;4.90;99.90;;;;;;4857894;29;20041;-92
2022/01/15 08:57:43;;;;;;;48.67;15.60;;;4.90;99.90;;;;;;4879729;29;20067;-92
2022/01/15 09:00:14;;;;;;;45.40;16.52;;;5.00;99.90;;;;;;4860258;29;20045;-91
2022/01/15 09:02:40;;;;;;;51.75;16.58;;;4.90;99.90;;;;;;4876867;29;20055;-91
2022/01/15 09:05:06;;;;;;;45.08;15.77;;;4.90;99.90;;;;;;4861123;29;20045;-92
2022/01/15 09:07:32;;;;;;;43.55;15.50;;;4.90;99.90;;;;;;4877597;29;20056;-93
2022/01/15 09:09:57;;;;;;;48.50;14.98;;;4.90;99.90;;;;;;4848528;29;20044;-91
2022/01/15 09:12:23;;;;;;;44.78;13.90;;;4.90;99.90;;;;;;4847861;29;20079;-91
2022/01/15 09:14:52;;;;;;;39.42;15.63;;;4.80;99.90;;;;;;4860387;29;20053;-91
2022/01/15 09:17:18;;;;;;;44.97;15.32;;;4.80;99.90;;;;;;4847569;29;20508;-91
2022/01/15 09:19:44;;;;;;;40.85;13.70;;;4.80;99.90;;;;;;4859493;29;20045;-91
2022/01/15 09:22:11;;;;;;;43.15;15.00;;;4.80;99.90;;;;;;4857879;29;20107;-91
2022/01/15 09:24:38;;;;;;;42.85;14.15;;;4.70;99.90;;;;;;4867901;29;20709;-90
2022/01/15 09:30:12;;;;;;;54.80;17.63;;;4.70;99.90;;;;;;4858328;29;20068;-90
2022/01/15 09:32:34;;;;;;;57.90;17.23;;;4.80;99.90;;;;;;4885841;29;20128;-90
2022/01/15 09:35:01;;;;;;;54.92;16.98;;;4.80;99.90;;;;;;4866751;29;20136;-90
2022/01/15 09:37:27;;;;;;;53.38;16.10;;;4.80;99.90;;;;;;4857995;29;20040;-89
2022/01/15 09:39:52;;;;;;;59.80;18.85;;;4.80;99.90;;;;;;4872109;29;20123;-89
2022/01/15 09:42:21;;;;;;;54.60;17.52;;;4.80;99.90;;;;;;4848830;29;20393;-89
2022/01/15 09:44:48;;;;;;;58.03;18.35;;;4.80;99.90;;;;;;4871343;29;20048;-89
2022/01/15 09:47:15;;;;;;;60.80;19.27;;;4.70;99.90;;;;;;4855663;29;20061;-90
2022/01/15 09:49:43;;;;;;;63.30;19.00;;;4.70;99.90;;;;;;4855226;29;20108;-89
2022/01/15 09:52:10;;;;;;;63.28;17.80;;;4.70;99.90;;;;;;4876379;29;20068;-90
2022/01/15 09:54:37;;;;;;;57.25;16.85;;;4.70;99.90;;;;;;4859845;29;20060;-89
2022/01/15 09:57:03;;;;;;;56.40;17.35;;;4.70;99.90;;;;;;4853709;29;20419;-90
2022/01/15 09:59:28;;;;;;;63.35;18.38;;;4.70;99.90;;;;;;4859529;29;20051;-90
2022/01/15 10:01:54;;;;;;;69.10;19.17;;;4.70;99.90;;;;;;4866222;29;20068;-90
2022/01/15 10:04:19;;;;;;;58.35;16.83;;;4.70;99.90;;;;;;4854627;29;20049;-89
2022/01/15 10:07:07;;;;;;;55.42;16.70;;;4.70;99.90;;;;;;4864205;29;20048;-91
2022/01/15 10:09:33;;;;;;;62.78;18.35;;;4.60;99.90;;;;;;4859808;29;20049;-90
2022/01/15 10:11:59;;;;;;;62.63;18.55;;;4.60;99.90;;;;;;4861368;29;20064;-91
2022/01/15 10:14:28;;;;;;;75.82;20.90;;;4.60;99.90;;;;;;4861505;29;20055;-90
2022/01/15 10:16:56;;;;;;;73.50;20.70;;;4.70;99.90;;;;;;4851216;29;20131;-90
2022/01/15 10:19:29;;;;;;;70.35;21.10;;;4.70;99.90;;;;;;4875475;29;20041;-91
2022/01/15 10:22:04;;;;;;;;;;;4.70;99.90;;;;;;4869066;29;20533;-92
2022/01/15 10:24:30;;;;;;;58.47;18.02;;;4.60;99.90;;;;;;4875791;29;19979;-92
2022/01/15 10:26:55;;;;;;;53.90;18.20;;;4.60;99.90;;;;;;4876113;29;20041;-92
2022/01/15 10:29:21;;;;;;;51.65;17.60;;;4.70;99.90;;;;;;4873726;29;20076;-91
2022/01/15 10:31:47;;;;;;;50.88;17.05;;;4.60;99.90;;;;;;4875670;29;20055;-92
2022/01/15 10:34:42;;;;;;;60.45;18.40;;;4.50;99.90;;;;;;4864521;29;20041;-92
2022/01/15 10:37:12;;;;;;;56.47;18.27;;;4.60;99.90;;;;;;4863323;29;20057;-92
2022/01/15 10:39:39;;;;;;;58.97;18.70;;;4.60;99.90;;;;;;4858742;29;20124;-92
2022/01/15 10:42:16;;;;;;;55.70;17.95;;;4.60;99.90;;;;;;4854749;29;20076;-91
2022/01/15 10:44:42;;;;;;;59.17;18.02;;;4.60;99.90;;;;;;4860489;29;20052;-90
2022/01/15 10:47:13;;;;;;;53.50;17.73;;;4.60;99.90;;;;;;4857834;29;20087;-90
2022/01/15 10:49:40;;;;;;;55.95;18.50;;;4.60;99.90;;;;;;4856547;29;20079;-91
2022/01/15 10:52:12;;;;;;;54.00;18.50;;;4.60;99.90;;;;;;4854112;29;20059;-91
2022/01/15 10:54:50;;;;;;;63.50;20.25;;;4.60;99.90;;;;;;4850009;29;20099;-90
2022/01/15 10:57:18;;;;;;;58.67;20.15;;;4.60;99.90;;;;;;4849203;29;20411;-90
2022/01/15 11:00:11;;;;;;;57.47;19.38;;;4.60;99.90;;;;;;4862208;29;20037;-90
2022/01/15 11:02:37;;;;;;;60.40;19.95;;;4.60;99.90;;;;;;4856565;29;20168;-90
2022/01/15 11:05:20;;;;;;;62.33;21.33;;;4.60;99.90;;;;;;4894797;29;20044;-89
2022/01/15 11:07:45;;;;;;;70.80;21.83;;;4.70;99.90;;;;;;4883157;29;20057;-90
2022/01/15 11:10:11;;;;;;;65.50;20.67;;;4.60;99.90;;;;;;4877367;29;20052;-90
2022/01/15 11:12:37;;;;;;;64.30;21.88;;;4.70;99.90;;;;;;4863593;29;20126;-89
2022/01/15 11:15:03;;;;;;;65.38;21.30;;;4.70;99.90;;;;;;4861152;29;20044;-89
2022/01/15 11:17:29;;;;;;;68.10;22.52;;;4.70;99.90;;;;;;4863242;29;20048;-89
2022/01/15 11:19:54;;;;;;;65.38;21.13;;;4.70;99.90;;;;;;4861936;29;20041;-90
2022/01/15 11:22:25;;;;;;;65.82;20.73;;;4.70;99.90;;;;;;4863294;29;20113;-89
2022/01/15 11:24:51;;;;;;;70.47;22.10;;;4.70;99.90;;;;;;4857991;29;20053;-89
2022/01/15 11:27:17;;;;;;;65.10;22.38;;;4.70;99.90;;;;;;4871725;29;20507;-89
2022/01/15 11:29:45;;;;;;;72.18;23.20;;;4.70;99.90;;;;;;4859258;29;20135;-89
2022/01/15 11:32:14;;;;;;;64.25;21.60;;;4.60;99.90;;;;;;4862706;29;20040;-89
2022/01/15 11:34:41;;;;;;;53.63;18.20;;;4.60;99.90;;;;;;4862187;29;20037;-89
2022/01/15 11:37:18;;;;;;;54.17;20.30;;;4.70;99.90;;;;;;4878572;29;20040;-89
2022/01/15 11:39:45;;;;;;;62.90;21.55;;;4.60;99.90;;;;;;4859671;29;20048;-89
2022/01/15 11:42:35;;;;;;;66.40;21.42;;;4.60;99.90;;;;;;4874253;29;20037;-88
2022/01/15 11:45:02;;;;;;;59.72;19.65;;;4.60;99.90;;;;;;4873905;29;20052;-89
2022/01/15 11:47:27;;;;;;;60.55;20.17;;;4.60;99.90;;;;;;4858458;29;20041;-89
2022/01/15 11:49:54;;;;;;;56.40;21.15;;;4.60;99.90;;;;;;4858353;29;20758;-88
2022/01/15 11:52:23;;;;;;;61.70;21.17;;;4.60;99.90;;;;;;4859754;29;20427;-88
2022/01/15 11:54:49;;;;;;;55.42;20.05;;;4.60;99.90;;;;;;4859195;29;20048;-89
2022/01/15 11:57:27;;;;;;;56.92;20.60;;;4.60;99.90;;;;;;4860352;29;20052;-89
2022/01/15 11:59:54;;;;;;;55.08;20.52;;;4.60;99.90;;;;;;4857933;29;20047;-89
2022/01/15 12:02:33;;;;;;;55.35;19.88;;;4.60;99.90;;;;;;4862322;29;20076;-89
2022/01/15 12:05:17;;;;;;;46.40;17.40;;;4.60;99.90;;;;;;4859099;29;20049;-89
2022/01/15 12:08:08;;;;;;;47.30;17.88;;;4.50;99.90;;;;;;4859466;29;20063;-89
2022/01/15 12:10:49;;;;;;;52.17;18.90;;;4.50;99.90;;;;;;4839772;29;20059;-89
2022/01/15 12:13:20;;;;;;;50.20;18.17;;;4.50;99.90;;;;;;4859283;29;20055;-88
2022/01/15 12:16:09;;;;;;;56.33;19.98;;;4.50;99.90;;;;;;4859281;29;20069;-89
2022/01/15 12:18:49;;;;;;;62.35;20.35;;;4.50;99.90;;;;;;4872234;29;20063;-90
2022/01/15 12:21:49;;;;;;;56.80;19.83;;;4.60;99.90;;;;;;4861776;29;20495;-90
2022/01/15 12:24:39;;;;;;;61.08;21.20;;;4.50;99.90;;;;;;4885775;29;20352;-90
2022/01/15 12:27:07;;;;;;;61.92;18.83;;;4.50;99.90;;;;;;4858758;29;20208;-90
2022/01/15 12:29:34;;;;;;;64.45;21.95;;;4.60;99.90;;;;;;4873260;29;20055;-91
2022/01/15 12:32:00;;;;;;;63.90;19.63;;;4.60;99.90;;;;;;4876494;29;20137;-91
2022/01/15 12:34:27;;;;;;;62.28;21.40;;;4.50;99.90;;;;;;4863391;29;20113;-90
2022/01/15 12:36:53;;;;;;;72.50;23.65;;;4.50;99.90;;;;;;4884121;29;20135;-91
2022/01/15 12:39:36;;;;;;;74.03;22.58;;;4.50;99.90;;;;;;4866700;29;20139;-90
2022/01/15 12:42:04;;;;;;;79.25;23.92;;;4.40;99.90;;;;;;4861625;29;20135;-90
2022/01/15 12:44:29;;;;;;;84.03;25.52;;;4.40;99.90;;;;;;4861282;29;20411;-90
2022/01/15 12:46:58;;;;;;;103.97;27.08;;;4.40;99.90;;;;;;4852509;29;20060;-90
2022/01/15 12:49:42;;;;;;;85.53;25.38;;;4.50;99.90;;;;;;4879102;29;20131;-89
2022/01/15 12:52:26;;;;;;;95.28;26.38;;;4.40;99.90;;;;;;4857632;29;20044;-91
2022/01/15 12:54:55;;;;;;;97.90;26.35;;;4.50;99.90;;;;;;4885819;29;20040;-90
2022/01/15 12:57:47;;;;;;;82.53;24.60;;;4.40;99.90;;;;;;4868480;29;20048;-90
2022/01/15 13:00:28;;;;;;;76.20;24.17;;;4.40;99.90;;;;;;4857422;29;20128;-90
2022/01/15 13:02:59;;;;;;;81.57;24.65;;;4.40;99.90;;;;;;4874493;29;20075;-89
2022/01/15 13:05:30;;;;;;;82.65;24.30;;;4.30;99.90;;;;;;4860781;29;20045;-88
2022/01/15 13:07:59;;;;;;;89.45;25.70;;;4.40;99.90;;;;;;4873180;29;20053;-89
2022/01/15 13:10:35;;;;;;;79.70;24.88;;;4.40;99.90;;;;;;4849263;29;20053;-89
2022/01/15 13:13:01;;;;;;;94.38;26.35;;;4.40;99.90;;;;;;4873237;29;20064;-89